createdAt,value
2022-11-03T05:02:14.433Z,101219.00
2022-11-03T05:04:43.008Z,101217.00
2022-11-03T05:07:29.837Z,101222.00
2022-11-03T05:09:58.129Z,101218.00
2022-11-03T05:12:27.138Z,101217.00
2022-11-03T05:14:58.249Z,101217.00
2022-11-03T05:17:30.091Z,101206.00
2022-11-03T05:20:02.915Z,101212.00
2022-11-03T05:22:36.654Z,101206.00
2022-11-03T05:25:33.191Z,101194.00
2022-11-03T05:28:01.232Z,101193.00
2022-11-03T05:30:29.463Z,101192.00
2022-11-03T05:32:59.686Z,101190.00
2022-11-03T05:35:27.617Z,101188.00
2022-11-03T05:37:55.617Z,101176.00
2022-11-03T05:40:27.008Z,101167.00
2022-11-03T05:43:00.047Z,101185.00
2022-11-03T05:45:34.084Z,101173.00
2022-11-03T05:48:14.658Z,101175.00
2022-11-03T05:50:43.510Z,101161.00
2022-11-03T05:53:28.226Z,101177.00
2022-11-03T05:56:00.843Z,101162.00
2022-11-03T05:58:33.307Z,101185.00
2022-11-03T06:01:05.558Z,101170.00
2022-11-03T06:03:37.612Z,101164.00
2022-11-03T06:06:16.707Z,101169.00
2022-11-03T06:08:46.261Z,101172.00
2022-11-03T06:11:25.690Z,101170.00
2022-11-03T06:13:54.068Z,101167.00
2022-11-03T06:16:42.462Z,101173.00
2022-11-03T06:19:29.819Z,101148.00
2022-11-03T06:22:03.598Z,101169.00
2022-11-03T06:24:35.580Z,101170.00
2022-11-03T06:27:03.823Z,101170.00
2022-11-03T06:29:34.711Z,101179.00
2022-11-03T06:32:03.259Z,101171.00
2022-11-03T06:34:46.145Z,101181.00
2022-11-03T06:37:23.720Z,101174.00
2022-11-03T06:39:58.867Z,101176.00
2022-11-03T06:42:32.602Z,101183.00
2022-11-03T06:45:11.254Z,101179.00
2022-11-03T06:47:42.178Z,101164.00
2022-11-03T06:50:25.563Z,101176.00
2022-11-03T06:52:55.412Z,101180.00
2022-11-03T06:55:27.272Z,101175.00
2022-11-03T06:58:00.443Z,101173.00
2022-11-03T07:00:40.116Z,101170.00
2022-11-03T07:03:17.017Z,101159.00
2022-11-03T07:05:46.650Z,101154.00
2022-11-03T07:08:25.787Z,101156.00
2022-11-03T07:11:04.841Z,101138.00
2022-11-03T07:13:35.454Z,101152.00
2022-11-03T07:16:03.977Z,101146.00
2022-11-03T07:18:39.761Z,101147.00
2022-11-03T07:21:31.843Z,101137.00
2022-11-03T07:24:04.019Z,101146.00
2022-11-03T07:26:34.699Z,101138.00
2022-11-03T07:29:03.429Z,101145.00
2022-11-03T07:31:33.012Z,101146.00
2022-11-03T07:34:01.034Z,101156.00
2022-11-03T07:36:32.991Z,101158.00
2022-11-03T07:39:03.879Z,101150.00
2022-11-03T07:41:34.893Z,101152.00
2022-11-03T07:44:04.279Z,101127.00
2022-11-03T07:46:32.245Z,101148.00
2022-11-03T07:49:02.656Z,101157.00
2022-11-03T07:51:34.862Z,101132.00
2022-11-03T07:54:14.970Z,101144.00
2022-11-03T07:56:47.461Z,101149.00
2022-11-03T07:59:21.162Z,101142.00
2022-11-03T08:01:51.750Z,101144.00
2022-11-03T08:04:24.059Z,101137.00
2022-11-03T08:06:53.553Z,101133.00
2022-11-03T08:09:22.125Z,101136.00
2022-11-03T08:11:50.382Z,101132.00
2022-11-03T08:14:19.032Z,101123.00
2022-11-03T08:16:47.011Z,101123.00
2022-11-03T08:19:15.003Z,101116.00
2022-11-03T08:21:42.968Z,101116.00
2022-11-03T08:24:12.322Z,101115.00
2022-11-03T08:26:40.323Z,101103.00
2022-11-03T08:29:08.297Z,101102.00
2022-11-03T08:31:36.277Z,101100.00
2022-11-03T08:34:04.434Z,101099.00
2022-11-03T08:36:32.503Z,101092.00
2022-11-03T08:39:00.569Z,101092.00
2022-11-03T08:41:29.922Z,101087.00
2022-11-03T08:43:58.122Z,101081.00
2022-11-03T08:46:26.188Z,101083.00
2022-11-03T08:48:54.247Z,101084.00
2022-11-03T08:51:22.307Z,101081.00
2022-11-03T08:53:53.808Z,101084.00
2022-11-03T08:56:34.609Z,101062.00
2022-11-03T08:59:04.199Z,101062.00
2022-11-03T09:01:32.317Z,101063.00
2022-11-03T09:04:00.554Z,101055.00
2022-11-03T09:06:28.636Z,101053.00
2022-11-03T09:11:44.700Z,101035.00
2022-11-03T09:14:14.051Z,101046.00
2022-11-03T09:16:42.012Z,101048.00
2022-11-03T09:19:10.031Z,101045.00
2022-11-03T09:21:38.075Z,101041.00
2022-11-03T09:24:07.371Z,101040.00
2022-11-03T09:26:35.502Z,101040.00
2022-11-03T09:29:03.549Z,101037.00
2022-11-03T09:31:32.878Z,101040.00
2022-11-03T09:34:00.940Z,101032.00
2022-11-03T09:36:28.933Z,101025.00
2022-11-03T09:38:56.937Z,101017.00
2022-11-03T09:41:27.714Z,101010.00
2022-11-03T09:44:03.710Z,101005.00
2022-11-03T09:46:35.172Z,100993.00
2022-11-03T09:49:05.266Z,100993.00
2022-11-03T09:51:36.340Z,100990.00
2022-11-03T09:54:06.852Z,100984.00
2022-11-03T09:56:38.087Z,100984.00
2022-11-03T09:59:16.658Z,100983.00
2022-11-03T10:01:49.929Z,100985.00
2022-11-03T10:04:22.439Z,100981.00
2022-11-03T10:06:50.504Z,100982.00
2022-11-03T10:09:20.633Z,100971.00
2022-11-03T10:11:49.301Z,100977.00
2022-11-03T10:14:20.041Z,100984.00
2022-11-03T10:16:56.836Z,100958.00
2022-11-03T10:19:25.711Z,100965.00
2022-11-03T10:21:53.965Z,100957.00
2022-11-03T10:24:22.083Z,100953.00
2022-11-03T10:26:52.457Z,100948.00
2022-11-03T10:29:23.154Z,100945.00
2022-11-03T10:31:55.515Z,100945.00
2022-11-03T10:34:34.004Z,100947.00
2022-11-03T10:37:23.576Z,100942.00
2022-11-03T10:39:53.485Z,100946.00
2022-11-03T10:42:24.520Z,100936.00
2022-11-03T10:44:55.965Z,100932.00
2022-11-03T10:47:33.686Z,100925.00
2022-11-03T10:50:19.965Z,100915.00
2022-11-03T10:52:48.245Z,100909.00
2022-11-03T10:55:22.077Z,100914.00
2022-11-03T10:57:55.912Z,100908.00
2022-11-03T11:00:25.045Z,100907.00
2022-11-03T11:03:01.715Z,100901.00
2022-11-03T11:05:29.937Z,100898.00
2022-11-03T11:08:00.505Z,100891.00
2022-11-03T11:10:31.249Z,100885.00
2022-11-03T11:13:25.645Z,100883.00
2022-11-03T11:15:55.754Z,100884.00
2022-11-03T11:19:03.261Z,100869.00
2022-11-03T11:22:01.465Z,100870.00
2022-11-03T11:25:03.260Z,100867.00
2022-11-03T11:28:18.847Z,100839.00
2022-11-03T11:31:59.618Z,100845.00
2022-11-03T11:34:41.721Z,100834.00
2022-11-03T11:37:36.649Z,100844.00
2022-11-03T11:40:14.636Z,100832.00
2022-11-03T11:43:26.002Z,100821.00
2022-11-03T11:46:34.721Z,100826.00
2022-11-03T11:49:18.258Z,100822.00
2022-11-03T11:51:48.327Z,100822.00
2022-11-03T11:54:21.861Z,100816.00
2022-11-03T11:56:51.118Z,100802.00
2022-11-03T11:59:25.737Z,100797.00
2022-11-03T12:01:57.614Z,100776.00
2022-11-03T12:04:30.980Z,100788.00
2022-11-03T12:07:00.418Z,100789.00
2022-11-03T12:09:29.441Z,100786.00
2022-11-03T12:12:04.990Z,100779.00
2022-11-03T12:14:38.063Z,100776.00
2022-11-03T12:17:35.167Z,100763.00
2022-11-03T12:20:36.586Z,100735.00
2022-11-03T12:23:05.929Z,100773.00
2022-11-03T12:25:37.276Z,100762.00
2022-11-03T12:28:05.808Z,100758.00
2022-11-03T12:30:39.431Z,100767.00
2022-11-03T12:33:08.247Z,100773.00
2022-11-03T12:35:36.631Z,100759.00
2022-11-03T12:38:05.925Z,100764.00
2022-11-03T12:40:33.909Z,100753.00
2022-11-03T12:43:01.936Z,100753.00
2022-11-03T12:45:29.866Z,100745.00
2022-11-03T12:47:57.889Z,100747.00
2022-11-03T12:50:26.070Z,100733.00
2022-11-03T12:52:54.130Z,100741.00
2022-11-03T12:55:23.595Z,100733.00
2022-11-03T12:57:51.742Z,100738.00
2022-11-03T13:00:19.964Z,100732.00
2022-11-03T13:02:48.198Z,100730.00
2022-11-03T13:05:16.679Z,100731.00
2022-11-03T13:07:44.728Z,100730.00
2022-11-03T13:10:12.763Z,100716.00
2022-11-03T13:12:44.674Z,100716.00
2022-11-03T13:15:15.735Z,100717.00
2022-11-03T13:18:12.768Z,100706.00
2022-11-03T13:20:32.430Z,100705.00
2022-11-03T13:23:00.420Z,100699.00
2022-11-03T13:25:28.902Z,100687.00
2022-11-03T13:27:58.925Z,100687.00
2022-11-03T13:30:28.476Z,100681.00
2022-11-03T13:32:57.172Z,100678.00
2022-11-03T13:35:25.181Z,100669.00
2022-11-03T13:37:53.220Z,100666.00
2022-11-03T13:43:11.685Z,100652.00
2022-11-03T13:45:40.048Z,100653.00
2022-11-03T13:50:56.785Z,100640.00
2022-11-03T13:56:19.186Z,100619.00
2022-11-03T14:01:40.733Z,100619.00
2022-11-03T14:06:58.462Z,100617.00
2022-11-03T14:09:26.775Z,100613.00
2022-11-03T14:12:19.720Z,100604.00
2022-11-03T14:14:49.265Z,100607.00
2022-11-03T14:17:17.256Z,100612.00
2022-11-03T14:19:51.785Z,100599.00
2022-11-03T14:22:20.892Z,100607.00
2022-11-03T14:24:50.432Z,100605.00
2022-11-03T14:27:20.443Z,100597.00
2022-11-03T14:29:50.503Z,100599.00
2022-11-03T14:32:20.449Z,100591.00
2022-11-03T14:34:48.802Z,100582.00
2022-11-03T14:37:17.312Z,100579.00
2022-11-03T14:39:45.477Z,100575.00
2022-11-03T14:42:15.837Z,100574.00
2022-11-03T14:44:46.520Z,100567.00
2022-11-03T14:47:18.637Z,100552.00
2022-11-03T14:49:47.093Z,100559.00
2022-11-03T14:52:16.740Z,100539.00
2022-11-03T14:54:45.191Z,100532.00
2022-11-03T14:57:13.196Z,100534.00
2022-11-03T14:59:41.684Z,100526.00
2022-11-03T15:02:09.874Z,100515.00
2022-11-03T15:04:39.301Z,100516.00
2022-11-03T15:07:07.332Z,100515.00
2022-11-03T15:09:35.361Z,100509.00
2022-11-03T15:12:03.410Z,100500.00
2022-11-03T15:14:31.412Z,100498.00
2022-11-03T15:16:59.445Z,100488.00
2022-11-03T15:19:27.458Z,100491.00
2022-11-03T15:21:56.784Z,100482.00
2022-11-03T15:27:13.599Z,100469.00
2022-11-03T15:29:41.573Z,100477.00
2022-11-03T15:32:09.559Z,100462.00
2022-11-03T15:34:37.564Z,100467.00
2022-11-03T15:37:06.839Z,100472.00
2022-11-03T15:39:34.824Z,100471.00
2022-11-03T15:42:02.861Z,100462.00
2022-11-03T15:44:30.941Z,100435.00
2022-11-03T15:46:58.941Z,100451.00
2022-11-03T15:49:27.071Z,100459.00
2022-11-03T15:51:55.026Z,100442.00
2022-11-03T15:54:24.325Z,100437.00
2022-11-03T15:56:52.307Z,100432.00
2022-11-03T15:59:20.295Z,100434.00
2022-11-03T16:01:48.392Z,100425.00
2022-11-03T16:04:17.171Z,100419.00
2022-11-03T16:09:34.709Z,100397.00
2022-11-03T16:12:03.118Z,100396.00
2022-11-03T16:14:31.346Z,100392.00
2022-11-03T16:16:59.647Z,100391.00
2022-11-03T16:19:27.690Z,100378.00
2022-11-03T16:21:55.620Z,100370.00
2022-11-03T16:24:29.584Z,100366.00
2022-11-03T16:27:05.002Z,100363.00
2022-11-03T16:29:33.066Z,100368.00
2022-11-03T16:32:01.043Z,100359.00
2022-11-03T16:34:29.044Z,100357.00
2022-11-03T16:36:57.200Z,100359.00
2022-11-03T16:39:25.149Z,100358.00
2022-11-03T16:41:54.735Z,100345.00
2022-11-03T16:44:24.138Z,100359.00
2022-11-03T16:46:52.035Z,100346.00
2022-11-03T16:49:20.045Z,100343.00
2022-11-03T16:51:48.058Z,100326.00
2022-11-03T16:54:16.224Z,100326.00
2022-11-03T16:56:44.841Z,100325.00
2022-11-03T16:59:12.891Z,100321.00
2022-11-03T17:01:43.251Z,100315.00
2022-11-03T17:04:11.278Z,100310.00
2022-11-03T17:06:39.235Z,100302.00
2022-11-03T17:09:07.238Z,100305.00
2022-11-03T17:11:37.917Z,100307.00
2022-11-03T17:14:07.770Z,100290.00
2022-11-03T17:16:36.147Z,100302.00
2022-11-03T17:19:05.488Z,100288.00
2022-11-03T17:21:33.561Z,100283.00
2022-11-03T17:24:01.809Z,100274.00
2022-11-03T17:26:42.866Z,100273.00
2022-11-03T17:29:18.640Z,100273.00
2022-11-03T17:31:46.850Z,100265.00
2022-11-03T17:34:25.775Z,100247.00
2022-11-03T17:36:54.833Z,100252.00
2022-11-03T17:39:29.164Z,100270.00
2022-11-03T17:42:12.964Z,100256.00
2022-11-03T17:44:41.096Z,100257.00
2022-11-03T17:47:09.097Z,100248.00
2022-11-03T17:49:38.447Z,100244.00
2022-11-03T17:52:07.367Z,100244.00
2022-11-03T17:54:35.501Z,100248.00
2022-11-03T17:57:05.004Z,100238.00
2022-11-03T17:59:34.404Z,100224.00
2022-11-03T18:02:04.031Z,100230.00
2022-11-03T18:04:32.501Z,100223.00
2022-11-03T18:07:01.921Z,100220.00
2022-11-03T18:09:29.903Z,100208.00
2022-11-03T18:12:15.357Z,100204.00
2022-11-03T18:14:43.384Z,100197.00
2022-11-03T18:17:11.476Z,100191.00
2022-11-03T18:19:40.000Z,100184.00
2022-11-03T18:22:12.662Z,100183.00
2022-11-03T18:24:40.678Z,100166.00
2022-11-03T18:27:14.943Z,100168.00
2022-11-03T18:29:42.958Z,100162.00
2022-11-03T18:32:18.399Z,100144.00
2022-11-03T18:34:46.651Z,100142.00
2022-11-03T18:37:16.027Z,100129.00
2022-11-03T18:39:44.064Z,100115.00
2022-11-03T18:42:16.298Z,100107.00
2022-11-03T18:44:44.654Z,100102.00
2022-11-03T18:47:12.711Z,100086.00
2022-11-03T18:49:40.854Z,100088.00
2022-11-03T18:52:16.175Z,100077.00
2022-11-03T18:54:50.195Z,100058.00
2022-11-03T18:57:23.382Z,100074.00
2022-11-03T18:59:52.246Z,100063.00
2022-11-03T19:02:22.615Z,100057.00
2022-11-03T19:04:51.077Z,100042.00
2022-11-03T19:07:26.584Z,100031.00
2022-11-03T19:09:54.619Z,100029.00
2022-11-03T19:12:22.970Z,100012.00
2022-11-03T19:14:51.931Z,100034.00
2022-11-03T19:17:24.586Z,100034.00
2022-11-03T19:19:53.592Z,100025.00
2022-11-03T19:22:24.348Z,100029.00
2022-11-03T19:24:52.416Z,100030.00
2022-11-03T19:27:26.335Z,100026.00
2022-11-03T19:29:56.802Z,100025.00
2022-11-03T19:32:29.582Z,100020.00
2022-11-03T19:35:03.004Z,100014.00
2022-11-03T19:37:36.039Z,100000.00
2022-11-03T19:40:05.938Z,100006.00
2022-11-03T19:42:36.500Z,100001.00
2022-11-03T19:45:08.332Z,99998.00
2022-11-03T19:47:57.604Z,99991.00
2022-11-03T19:50:35.346Z,99995.00
2022-11-03T19:53:07.752Z,99981.00
2022-11-03T19:55:40.012Z,99972.00
2022-11-03T19:58:15.474Z,99961.00
2022-11-03T20:00:44.051Z,99954.00
2022-11-03T20:03:12.308Z,99958.00
2022-11-03T20:05:46.404Z,99950.00
2022-11-03T20:08:22.487Z,99945.00
2022-11-03T20:10:51.701Z,99937.00
2022-11-03T20:13:22.766Z,99930.00
2022-11-03T20:15:57.366Z,99941.00
2022-11-03T20:18:25.491Z,99940.00
2022-11-03T20:20:55.696Z,99941.00
2022-11-03T20:23:30.604Z,99943.00
2022-11-03T20:25:59.575Z,99944.00
2022-11-03T20:28:33.685Z,99928.00
2022-11-03T20:31:03.718Z,99939.00
2022-11-03T20:33:32.487Z,99949.00
2022-11-03T20:36:01.276Z,99933.00
2022-11-03T20:38:31.599Z,99915.00
2022-11-03T20:41:07.299Z,99924.00
2022-11-03T20:43:43.135Z,99924.00
2022-11-03T20:46:23.211Z,99908.00
2022-11-03T20:48:51.862Z,99915.00
2022-11-03T20:51:26.926Z,99909.00
2022-11-03T20:53:56.759Z,99918.00
2022-11-03T20:56:27.530Z,99913.00
2022-11-03T20:58:56.816Z,99908.00
2022-11-03T21:01:32.985Z,99906.00
2022-11-03T21:04:03.121Z,99898.00
2022-11-03T21:06:33.873Z,99907.00
2022-11-03T21:09:04.099Z,99896.00
2022-11-03T21:11:39.764Z,99911.00
2022-11-03T21:14:15.897Z,99904.00
2022-11-03T21:17:01.630Z,99886.00
2022-11-03T21:19:51.176Z,99902.00
2022-11-03T21:22:50.368Z,99898.00
2022-11-03T21:25:16.592Z,99890.00
2022-11-03T21:27:45.569Z,99878.00
2022-11-03T21:30:15.505Z,99900.00
2022-11-03T21:32:44.127Z,99891.00
2022-11-03T21:35:16.604Z,99883.00
2022-11-03T21:37:44.637Z,99868.00
2022-11-03T21:40:14.254Z,99877.00
2022-11-03T21:43:00.137Z,99867.00
2022-11-03T21:45:28.934Z,99863.00
2022-11-03T21:48:15.126Z,99860.00
2022-11-03T21:50:43.787Z,99856.00
2022-11-03T21:53:12.618Z,99861.00
2022-11-03T21:55:42.371Z,99853.00
2022-11-03T21:58:10.761Z,99866.00
